Time;durP1;ratioP1;P1;durP2;ratioP2;P2;SDS_P1;SDS_P2;PMS_P1;PMS_P2;Temp;Humidity;BMP_temperature;BMP_pressure;BME280_temperature;BME280_humidity;BME280_pressure;Samples;Min_cycle;Max_cycle;Signal;HPM_P1;HPM_P2
2021/06/24 00:02:30;;;;;;;;;;;;;;;;;;;;;
2021/06/24 00:05:43;;;;;;;252.77;241.37;;;13.30;99.90;;;;;;6009865;23;20445;-87
2021/06/24 00:21:45;;;;;;;228.97;217.63;;;13.20;99.90;;;;;;6028016;23;20472;-88
2021/06/24 00:24:59;;;;;;;234.90;223.17;;;13.10;99.90;;;;;;6073173;23;20438;-87
2021/06/24 00:31:28;;;;;;;224.70;213.33;;;13.10;99.90;;;;;;6036164;23;20417;-87
2021/06/24 00:34:27;;;;;;;226.57;215.67;;;13.20;99.90;;;;;;5979432;23;20490;-88
2021/06/24 00:37:19;;;;;;;227.27;216.10;;;13.10;99.90;;;;;;6166080;23;20412;-88
2021/06/24 00:40:28;;;;;;;208.47;197.97;;;13.20;99.90;;;;;;6193515;23;20432;-87
2021/06/24 00:43:50;;;;;;;219.17;207.77;;;13.20;99.90;;;;;;6075543;23;20428;-85
2021/06/24 00:50:20;;;;;;;225.40;212.87;;;13.00;99.90;;;;;;5945050;24;20430;-88
2021/06/24 00:59:15;;;;;;;224.37;212.70;;;13.10;99.90;;;;;;6120968;23;20449;-86
2021/06/24 01:05:14;;;;;;;208.30;197.80;;;13.10;99.90;;;;;;6213026;22;20408;-88
2021/06/24 01:07:53;;;;;;;212.23;201.03;;;13.00;99.90;;;;;;6226141;23;20412;-88
2021/06/24 01:10:34;;;;;;;207.10;196.47;;;13.10;99.90;;;;;;6226452;23;20408;-87
2021/06/24 01:13:44;;;;;;;200.40;190.37;;;13.00;99.90;;;;;;6226121;23;20407;-87
2021/06/24 01:16:24;;;;;;;200.33;189.97;;;13.00;99.90;;;;;;6199066;23;20419;-86
2021/06/24 01:19:17;;;;;;;207.60;196.80;;;12.90;99.90;;;;;;6214662;23;20439;-87
2021/06/24 01:22:21;;;;;;;203.20;192.30;;;12.90;99.90;;;;;;6225705;22;20938;-88
2021/06/24 01:31:38;;;;;;;199.30;189.13;;;12.90;99.90;;;;;;6213302;22;20419;-87
2021/06/24 01:34:18;;;;;;;217.13;204.53;;;13.00;99.90;;;;;;6224202;23;20412;-87
2021/06/24 01:40:41;;;;;;;222.10;210.80;;;13.10;99.90;;;;;;6125573;23;20414;-87
2021/06/24 01:43:40;;;;;;;224.30;212.20;;;13.00;99.90;;;;;;6214759;23;20784;-87
2021/06/24 01:46:51;;;;;;;;;;;;;;;;;;;;;
2021/06/24 01:49:49;;;;;;;238.80;226.77;;;13.10;99.90;;;;;;6224472;23;20767;-86
2021/06/24 01:52:25;;;;;;;237.27;225.43;;;13.00;99.90;;;;;;6225380;23;20756;-87
2021/06/24 01:55:14;;;;;;;242.97;231.30;;;13.00;99.90;;;;;;6215317;23;20816;-88
2021/06/24 01:57:56;;;;;;;243.47;230.43;;;12.80;99.90;;;;;;6245334;23;20522;-86
2021/06/24 02:03:53;;;;;;;;;;;;;;;;;;;;;
2021/06/24 02:06:30;;;;;;;224.57;212.87;;;12.60;99.90;;;;;;6245444;23;20450;-88
2021/06/24 02:09:13;;;;;;;216.53;205.03;;;12.70;99.90;;;;;;6255707;23;20482;-87
2021/06/24 02:14:52;;;;;;;228.10;216.97;;;12.70;99.90;;;;;;6242867;22;20411;-86
2021/06/24 02:17:31;;;;;;;233.17;221.30;;;12.60;99.90;;;;;;6255830;23;20889;-87
2021/06/24 02:20:09;;;;;;;233.67;221.73;;;12.70;99.90;;;;;;6255021;23;20403;-87
2021/06/24 02:22:48;;;;;;;242.03;229.83;;;12.60;99.90;;;;;;6255816;23;20418;-87
2021/06/24 02:25:21;;;;;;;244.10;231.00;;;12.60;99.90;;;;;;6255695;23;20418;-88
2021/06/24 02:28:17;;;;;;;242.30;229.83;;;12.60;99.90;;;;;;6255634;23;20741;-85
2021/06/24 02:30:56;;;;;;;239.50;227.43;;;12.50;99.90;;;;;;6255760;23;20425;-87
2021/06/24 02:33:25;;;;;;;234.67;223.07;;;12.60;99.90;;;;;;6254846;23;20461;-86
2021/06/24 02:35:58;;;;;;;234.77;222.30;;;12.50;99.90;;;;;;6246030;23;20403;-85
2021/06/24 02:39:18;;;;;;;230.70;218.80;;;12.60;99.90;;;;;;6256032;23;20400;-85
2021/06/24 02:41:59;;;;;;;227.47;213.37;;;12.60;99.90;;;;;;6128670;23;20910;-87
2021/06/24 02:44:39;;;;;;;226.87;215.80;;;12.70;99.90;;;;;;6255972;23;20415;-87
2021/06/24 02:47:30;;;;;;;228.67;217.07;;;12.60;99.90;;;;;;6255640;23;20434;-86
2021/06/24 02:53:31;;;;;;;231.30;219.93;;;12.50;99.90;;;;;;6120074;23;20501;-87
2021/06/24 02:56:11;;;;;;;233.77;222.87;;;12.50;99.90;;;;;;6227702;23;20415;-87
2021/06/24 03:01:34;;;;;;;228.70;216.30;;;12.80;99.90;;;;;;6212813;23;20432;-86
2021/06/24 03:04:12;;;;;;;227.77;215.80;;;12.70;99.90;;;;;;6224228;23;20412;-87
2021/06/24 03:06:50;;;;;;;222.67;211.97;;;12.70;99.90;;;;;;6213853;23;20451;-86
2021/06/24 03:09:19;;;;;;;225.10;214.17;;;12.70;99.90;;;;;;6224944;23;20418;-87
2021/06/24 03:11:54;;;;;;;229.17;217.27;;;12.80;99.90;;;;;;6225145;23;20432;-85
2021/06/24 03:14:36;;;;;;;220.67;208.77;;;12.70;99.90;;;;;;6224837;23;20412;-87
2021/06/24 03:17:11;;;;;;;220.30;209.40;;;12.70;99.90;;;;;;6192225;23;20891;-88
2021/06/24 03:19:45;;;;;;;224.27;212.40;;;12.90;99.90;;;;;;6214199;23;20395;-86
2021/06/24 03:22:18;;;;;;;224.53;212.30;;;12.90;99.90;;;;;;6216751;23;20404;-86
2021/06/24 03:25:02;;;;;;;;;;;;;;;;;;;;;
2021/06/24 03:27:35;;;;;;;226.20;215.00;;;13.00;99.90;;;;;;6226798;23;20799;-88
2021/06/24 03:30:15;;;;;;;236.40;224.57;;;13.10;99.90;;;;;;6217015;23;20403;-89
2021/06/24 03:32:43;;;;;;;251.83;239.57;;;13.10;99.90;;;;;;6226773;23;20412;-81
2021/06/24 03:41:26;;;;;;;261.00;248.23;;;13.00;99.90;;;;;;6216715;23;20440;-87
2021/06/24 03:44:08;;;;;;;265.83;253.43;;;13.00;99.90;;;;;;6185841;23;20422;-88
2021/06/24 03:46:38;;;;;;;267.47;254.57;;;13.10;99.90;;;;;;6216856;23;20431;-85
2021/06/24 03:49:09;;;;;;;264.03;250.70;;;13.00;99.90;;;;;;6225652;23;20800;-87
2021/06/24 03:51:36;;;;;;;266.70;254.17;;;13.00;99.90;;;;;;6216500;23;20724;-82
2021/06/24 03:54:13;;;;;;;272.70;259.50;;;13.10;99.90;;;;;;6226360;23;20442;-88
2021/06/24 04:00:33;;;;;;;274.67;261.53;;;13.00;99.90;;;;;;6076666;23;20885;-90
2021/06/24 04:03:00;;;;;;;279.73;265.90;;;13.20;99.90;;;;;;6064950;23;20959;-88
2021/06/24 04:05:32;;;;;;;284.40;270.30;;;13.20;99.90;;;;;;6178218;23;20412;-89
2021/06/24 04:08:25;;;;;;;;;;;;;;;;;;;;;
2021/06/24 04:10:55;;;;;;;284.03;270.37;;;13.60;99.90;;;;;;6216092;23;20888;-86
2021/06/24 04:13:28;;;;;;;276.90;264.20;;;13.50;99.90;;;;;;6226933;23;20412;-90
2021/06/24 04:16:21;;;;;;;270.10;256.97;;;13.70;99.90;;;;;;6216742;23;20903;-88
2021/06/24 04:19:21;;;;;;;;;;;;;;;;;;;;;
2021/06/24 04:22:05;;;;;;;279.10;266.27;;;14.00;99.90;;;;;;6226912;23;20476;-90
2021/06/24 04:24:32;;;;;;;281.90;269.03;;;14.30;99.90;;;;;;6214288;23;20927;-83
2021/06/24 04:27:01;;;;;;;296.27;281.97;;;14.40;99.90;;;;;;6216263;23;20947;-87
2021/06/24 04:29:34;;;;;;;293.87;280.90;;;14.50;99.90;;;;;;6229133;23;20911;-88
2021/06/24 04:32:32;;;;;;;254.20;242.47;;;14.70;99.90;;;;;;6226657;23;20489;-88
2021/06/24 04:35:20;;;;;;;188.17;178.33;;;14.80;99.90;;;;;;6213194;23;20478;-86
2021/06/24 04:37:47;;;;;;;153.27;144.60;;;15.00;99.90;;;;;;6209112;23;20415;-79
2021/06/24 04:40:21;;;;;;;192.37;183.07;;;14.90;99.90;;;;;;6216077;23;20403;-88
2021/06/24 04:43:02;;;;;;;132.03;124.57;;;14.90;99.90;;;;;;6225964;23;20915;-87
2021/06/24 04:45:54;;;;;;;144.47;136.63;;;14.80;99.90;;;;;;6216553;23;20768;-86
2021/06/24 04:48:54;;;;;;;126.70;119.33;;;14.90;99.90;;;;;;6224870;23;20408;-88
2021/06/24 04:51:22;;;;;;;113.43;105.47;;;14.90;99.90;;;;;;6210785;23;20892;-87
2021/06/24 04:57:00;;;;;;;;;;;;;;;;;;;;;
2021/06/24 04:59:44;;;;;;;89.03;82.27;;;14.80;99.90;;;;;;6255761;23;20493;-87
2021/06/24 05:02:25;;;;;;;98.77;92.30;;;14.70;99.90;;;;;;6246260;23;20482;-86
2021/06/24 05:04:54;;;;;;;79.87;73.87;;;14.70;99.90;;;;;;6255269;23;20464;-80
2021/06/24 05:07:33;;;;;;;87.60;81.30;;;14.70;99.90;;;;;;6255495;23;20517;-83
2021/06/24 05:10:03;;;;;;;100.30;93.50;;;14.70;99.90;;;;;;6256460;23;20408;-84
2021/06/24 05:12:35;;;;;;;86.13;79.13;;;14.90;99.90;;;;;;6245832;23;20466;-87
2021/06/24 05:15:39;;;;;;;90.27;84.17;;;14.80;99.90;;;;;;6246393;23;20462;-86
2021/06/24 05:18:13;;;;;;;93.23;86.97;;;14.70;99.90;;;;;;6255244;22;20521;-86
2021/06/24 05:20:59;;;;;;;90.80;84.53;;;14.80;99.90;;;;;;6245898;23;20953;-87
2021/06/24 05:27:07;;;;;;;78.07;72.20;;;15.20;99.90;;;;;;6254458;23;20434;-85
2021/06/24 05:30:33;;;;;;;;;;;;;;;;;;;;;
2021/06/24 05:37:28;;;;;;;;;;;;;;;;;;;;;
2021/06/24 05:40:54;;;;;;;36.93;26.90;;;15.60;99.90;;;;;;6256223;23;20403;-87
2021/06/24 05:46:57;;;;;;;38.20;29.17;;;15.50;99.90;;;;;;5893193;24;20475;-85
2021/06/24 05:53:18;;;;;;;41.80;27.37;;;15.50;99.90;;;;;;6067864;23;20441;-89
2021/06/24 05:56:12;;;;;;;42.17;27.67;;;15.60;99.90;;;;;;6151104;23;20448;-88
2021/06/24 06:06:27;;;;;;;58.73;29.40;;;15.90;99.90;;;;;;6131386;23;21065;-90
2021/06/24 06:09:25;;;;;;;;;;;;;;;;;;;;;
2021/06/24 06:19:11;;;;;;;;;;;;;;;;;;;;;
2021/06/24 06:25:46;;;;;;;41.50;20.17;;;16.90;99.90;;;;;;6021324;23;20422;-87
2021/06/24 06:29:02;;;;;;;;;;;;;;;;;;;;;
2021/06/24 07:08:12;;;;;;;;;;;;;;;;;;;;;
2021/06/24 07:27:04;;;;;;;48.77;12.60;;;20.10;62.00;;;;;;5963715;24;20746;-86
2021/06/24 07:30:19;;;;;;;;;;;;;;;;;;;;;
2021/06/24 08:44:31;;;;;;;;;;;;;;;;;;;;;
2021/06/24 09:03:52;;;;;;;;;;;;;;;;;;;;;
2021/06/24 10:07:46;;;;;;;62.17;32.17;;;22.10;37.30;;;;;;5999662;23;20419;-85
2021/06/24 10:56:52;;;;;;;54.57;18.70;;;22.60;33.60;;;;;;5895510;24;20409;-83
2021/06/24 12:32:41;;;;;;;54.27;15.10;;;23.20;21.30;;;;;;6126533;23;20409;-84
2021/06/24 13:02:48;;;;;;;52.83;14.17;;;23.40;21.70;;;;;;6038437;23;20417;-86
2021/06/24 13:50:53;;;;;;;52.10;15.07;;;23.20;18.50;;;;;;5131141;27;20681;-81
2021/06/24 13:54:17;;;;;;;;;;;;;;;;;;;;;
2021/06/24 15:21:45;;;;;;;;;;;;;;;;;;;;;
2021/06/24 15:24:13;;;;;;;55.20;15.97;;;23.10;15.50;;;;;;4878376;29;20457;-84
2021/06/24 15:37:57;;;;;;;52.90;16.97;;;23.60;17.80;;;;;;4732785;30;20884;-84
2021/06/24 15:40:28;;;;;;;57.83;17.37;;;23.30;15.90;;;;;;4763049;29;21027;-86
2021/06/24 15:42:56;;;;;;;52.83;16.83;;;23.00;18.10;;;;;;4859475;29;20507;-81
2021/06/24 15:45:26;;;;;;;55.17;17.50;;;22.60;21.60;;;;;;4860370;29;20553;-82
2021/06/24 16:00:23;;;;;;;56.73;18.37;;;22.70;20.90;;;;;;4862002;29;20481;-83
2021/06/24 16:16:25;;;;;;;;;;;;;;;;;;;;;
2021/06/24 16:18:53;;;;;;;56.50;17.73;;;21.90;27.10;;;;;;4822969;29;20479;-82
2021/06/24 16:21:23;;;;;;;48.93;14.40;;;21.60;28.20;;;;;;4861584;29;20900;-83
2021/06/24 16:23:51;;;;;;;49.30;17.13;;;21.40;28.00;;;;;;4859556;29;20482;-76
2021/06/24 16:27:23;;;;;;;;;;;;;;;;;;;;;
2021/06/24 16:29:53;;;;;;;50.13;13.60;;;21.20;30.70;;;;;;4817337;29;20547;-83
2021/06/24 16:32:40;;;;;;;;;;;;;;;;;;;;;
2021/06/24 16:35:09;;;;;;;50.33;15.97;;;21.20;35.60;;;;;;4861608;29;20462;-82
2021/06/24 16:37:41;;;;;;;51.53;17.57;;;21.00;34.60;;;;;;4861647;29;20463;-82
2021/06/24 16:40:28;;;;;;;50.70;14.27;;;20.80;33.50;;;;;;4860401;29;20859;-82
2021/06/24 16:43:01;;;;;;;54.17;16.50;;;20.70;34.70;;;;;;4861730;29;20474;-83
2021/06/24 16:45:34;;;;;;;50.00;15.27;;;20.70;38.50;;;;;;4861502;29;20467;-83
2021/06/24 16:48:02;;;;;;;53.07;16.23;;;20.40;35.70;;;;;;4861355;29;20550;-82
2021/06/24 16:50:43;;;;;;;57.47;26.70;;;20.50;37.30;;;;;;4861302;29;20494;-82
2021/06/24 16:53:14;;;;;;;58.17;24.40;;;20.40;37.10;;;;;;4861289;29;20460;-83
2021/06/24 16:55:50;;;;;;;65.43;28.67;;;20.40;39.50;;;;;;4860429;29;20856;-82
2021/06/24 16:58:20;;;;;;;63.17;30.87;;;20.20;39.40;;;;;;4863124;29;20495;-83
2021/06/24 17:00:50;;;;;;;68.70;30.20;;;20.30;42.50;;;;;;4861193;29;20535;-83
2021/06/24 17:06:39;;;;;;;56.17;21.47;;;20.10;42.10;;;;;;4861201;29;20478;-83
2021/06/24 17:09:47;;;;;;;53.93;17.17;;;20.10;42.50;;;;;;4859661;29;20487;-83
2021/06/24 17:15:19;;;;;;;;;;;;;;;;;;;;;
2021/06/24 17:25:23;;;;;;;;;;;;;;;;;;;;;
2021/06/24 17:34:44;;;;;;;51.30;13.73;;;20.10;43.10;;;;;;4695211;30;20562;-82
2021/06/24 17:37:26;;;;;;;54.43;13.03;;;20.20;42.90;;;;;;4767885;30;20464;-83
2021/06/24 17:39:56;;;;;;;56.63;14.30;;;20.00;43.10;;;;;;4790964;29;20998;-83
2021/06/24 17:42:27;;;;;;;51.33;14.30;;;20.10;43.50;;;;;;4802596;29;20476;-83
2021/06/24 17:45:28;;;;;;;52.30;14.73;;;20.10;42.90;;;;;;4802541;29;20459;-85
2021/06/24 17:48:22;;;;;;;52.97;14.33;;;20.30;43.00;;;;;;4731045;30;20480;-85
2021/06/24 17:51:29;;;;;;;53.03;14.70;;;20.40;43.50;;;;;;4802259;29;20869;-85
2021/06/24 17:54:15;;;;;;;60.90;16.20;;;20.70;40.90;;;;;;4747470;30;20477;-85
2021/06/24 17:56:48;;;;;;;52.83;19.73;;;20.60;40.80;;;;;;4748624;30;20563;-85
2021/06/24 17:59:54;;;;;;;54.97;18.80;;;20.80;38.40;;;;;;4748475;30;20584;-85
2021/06/24 18:02:52;;;;;;;;;;;;;;;;;;;;;
2021/06/24 18:08:59;;;;;;;53.93;15.20;;;22.00;34.40;;;;;;4802364;29;20464;-84
2021/06/24 18:12:01;;;;;;;;;;;;;;;;;;;;;
2021/06/24 18:15:08;;;;;;;;;;;;;;;;;;;;;
2021/06/24 18:24:27;;;;;;;53.77;14.20;;;19.70;45.40;;;;;;4856186;29;20459;-85
2021/06/24 18:27:33;;;;;;;56.30;14.47;;;19.50;48.20;;;;;;4858885;29;20466;-85
2021/06/24 18:30:31;;;;;;;;;;;;;;;;;;;;;
2021/06/24 18:33:12;;;;;;;;;;;;;;;;;;;;;
2021/06/24 18:46:06;;;;;;;;;;;;;;;;;;;;;
2021/06/24 19:01:27;;;;;;;49.63;12.43;;;20.80;36.10;;;;;;4768515;29;20475;-85
2021/06/24 19:07:25;;;;;;;51.47;14.13;;;20.40;40.10;;;;;;4748219;30;20511;-85
2021/06/24 19:10:09;;;;;;;55.23;28.53;;;19.90;42.80;;;;;;4750068;30;20548;-85
2021/06/24 19:13:16;;;;;;;49.87;11.43;;;19.70;44.10;;;;;;4751819;30;20468;-85
2021/06/24 19:15:50;;;;;;;50.30;18.67;;;19.20;46.70;;;;;;4813929;29;20542;-85
2021/06/24 19:21:27;;;;;;;46.37;13.23;;;18.80;49.10;;;;;;4769116;29;20537;-85
2021/06/24 19:23:56;;;;;;;45.63;12.60;;;18.50;50.80;;;;;;4768885;30;20477;-84
2021/06/24 19:33:18;;;;;;;43.03;11.97;;;18.40;54.40;;;;;;4842792;29;20491;-85
2021/06/24 19:36:11;;;;;;;43.50;11.70;;;18.30;54.40;;;;;;4863650;29;20467;-85
2021/06/24 19:39:27;;;;;;;;;;;;;;;;;;;;;
2021/06/24 19:44:57;;;;;;;40.43;11.87;;;18.00;60.20;;;;;;4854190;29;20686;-85
2021/06/24 19:47:41;;;;;;;42.40;12.43;;;18.00;61.10;;;;;;4862722;29;20472;-85
2021/06/24 19:51:11;;;;;;;;;;;;;;;;;;;;;
2021/06/24 19:54:27;;;;;;;;;;;;;;;;;;;;;
2021/06/24 19:57:04;;;;;;;39.43;12.33;;;17.60;66.50;;;;;;4838084;29;20472;-84
2021/06/24 19:59:43;;;;;;;;;;;;;;;;;;;;;
2021/06/24 20:02:57;;;;;;;48.40;13.40;;;17.60;72.30;;;;;;4842240;29;20469;-85
2021/06/24 20:09:20;;;;;;;;;;;;;;;;;;;;;
2021/06/24 20:12:29;;;;;;;;;;;;;;;;;;;;;
2021/06/24 20:15:48;;;;;;;;;;;;;;;;;;;;;
2021/06/24 20:18:27;;;;;;;45.93;14.27;;;17.30;77.10;;;;;;4701553;30;20471;-85
2021/06/24 20:21:02;;;;;;;39.97;14.80;;;17.30;79.70;;;;;;4741846;29;20486;-85
2021/06/24 20:23:41;;;;;;;42.37;13.90;;;17.00;78.70;;;;;;4804559;29;20500;-85
2021/06/24 20:26:38;;;;;;;42.10;14.63;;;17.00;80.80;;;;;;4804966;29;20996;-85
2021/06/24 20:33:11;;;;;;;42.70;16.17;;;16.80;88.30;;;;;;4861796;29;20855;-85
2021/06/24 20:56:08;;;;;;;45.37;18.80;;;16.40;91.60;;;;;;4658496;30;20815;-85
2021/06/24 21:18:04;;;;;;;48.50;19.00;;;16.40;90.90;;;;;;4671069;30;20894;-85
2021/06/24 21:20:46;;;;;;;59.00;20.80;;;16.40;91.30;;;;;;4697783;30;20487;-85
2021/06/24 21:55:38;;;;;;;;;;;;;;;;;;;;;
2021/06/24 21:58:37;;;;;;;50.77;20.90;;;16.10;96.40;;;;;;4731688;30;20832;-85
2021/06/24 22:01:47;;;;;;;;;;;;;;;;;;;;;
2021/06/24 22:04:47;;;;;;;;;;;;;;;;;;;;;
2021/06/24 22:07:37;;;;;;;;;;;;;;;;;;;;;
2021/06/24 22:27:05;;;;;;;;;;;;;;;;;;;;;
2021/06/24 22:30:17;;;;;;;;;;;;;;;;;;;;;
2021/06/24 22:46:22;;;;;;;;;;;;;;;;;;;;;
2021/06/24 22:49:39;;;;;;;50.47;23.40;;;15.80;99.90;;;;;;4716014;30;20506;-85
2021/06/24 22:52:30;;;;;;;53.23;22.83;;;15.70;99.90;;;;;;4806524;29;20548;-85
2021/06/24 23:11:49;;;;;;;;;;;;;;;;;;;;;
2021/06/24 23:21:08;;;;;;;46.57;19.43;;;15.70;96.10;;;;;;4757959;30;21015;-85
2021/06/24 23:24:20;;;;;;;;;;;;;;;;;;;;;
2021/06/24 23:27:19;;;;;;;48.67;19.30;;;15.80;96.50;;;;;;4809552;29;20505;-85
2021/06/24 23:30:24;;;;;;;41.10;18.10;;;15.80;96.60;;;;;;4770054;30;20529;-85
2021/06/24 23:33:17;;;;;;;44.87;19.20;;;15.80;95.50;;;;;;4802461;29;20579;-85
2021/06/24 23:38:57;;;;;;;;;;;;;;;;;;;;;
2021/06/24 23:44:36;;;;;;;;;;;;;;;;;;;;;
2021/06/24 23:47:44;;;;;;;;;;;;;;;;;;;;;
2021/06/24 23:50:52;;;;;;;;;;;;;;;;;;;;;
2021/06/24 23:54:21;;;;;;;;;;;;;;;;;;;;;
2021/06/24 23:57:16;;;;;;;48.97;20.23;;;15.80;95.20;;;;;;4862480;29;20463;-84
2021/06/24 23:59:58;;;;;;;49.50;20.23;;;15.70;96.70;;;;;;4804885;29;20865;-85
